AirNav   Air Wisconsin Up To $57,000 Bonus
 
 1019 users online  

32MA Berkshire Medical Center Heliport
North Adams, Massachusetts, USA

GOING TO NORTH ADAMS?


FAA INFORMATION EFFECTIVE 25 MARCH 2021

Location

FAA Identifier: 32MA
Lat/Long: 42-42-28.9900N 073-06-37.0400W
42-42.483167N 073-06.617333W
42.7080528,-73.1102889
(estimated)
Elevation: 855 ft. / 261 m (estimated)
From city: 5 miles N of NORTH ADAMS, MA
Time zone: UTC -4 (UTC -5 during Standard Time)
Zip code: 01247

Heliport Operations

Heliport use: Private use. Permission required prior to landing
Activation date: 02/2003
Control tower: no
ARTCC: BOSTON CENTER
FSS: BURLINGTON FLIGHT SERVICE STATION
Attendance: UNATNDD
Segmented circle: no

Heliport Communications

WX ASOS at AQW (2.7 nm W): 134.775 (413-664-6658)
WX ASOS at DDH (13 nm NW): 135.925 (802-442-6059)
WX ASOS at PSF (19 nm SW): 135.375 (413-499-3273)

Nearby radio navigation aids

VOR radial/distance  VOR name  Freq  Var
CAMr163/20.0CAMBRIDGE VOR/DME115.0014W
CTRr357/26.0CHESTER VOR/DME115.1013W
ALBr107/30.6ALBANY VORTAC115.3013W
EENr276/36.4KEENE VORTAC109.4014W
BAFr346/37.1BARNES VORTAC113.0014W

 
NDB name  Hdg/Dist  Freq  Var  ID
HUNTER118/37.335614WHEU .... . ..-
PHILMONT058/38.527213WPFH .--. ..-. ....

Heliport Services

Runway Information

Helipad H1

Dimensions: 350 x 100 ft. / 107 x 30 m
Surface: concrete
Runway edge lights: FLD
Latitude: 42-42.483167N
Longitude: 073-06.617333W
Elevation: 855.0 ft.
Traffic pattern: leftleft

Heliport Ownership and Management from official FAA records

Ownership: Privately-owned
Owner: BERKSHIRE MEDICAL CENTER
725 NORTH ST
PITTSFIELD, MA 01201
Phone (413) 447-2000
Manager: MATT BILLETTER - DIR OF FACILITIES
725 NORTH ST
PITTSFIELD, MA 01201
Phone (413) 447-2050
MBILLETTER@BHS1.ORG

Additional Remarks

A52-H1 55 FT BLDG 120 FT SOUTH, 30 FT BLDG 15 FT EAST, 40 FT WOODLAND 15 FT NORTHEAST.
FOR CD CTC ALBANY APCH AT 518-862-2299.
(CONTACT PHONE NR) AFOUCHER@BHS1.ORG

Instrument Procedures

There are no published instrument procedures at 32MA.

Some nearby airports with instrument procedures:

KAQW - Harriman-and-West Airport (3 nm W)
KDDH - William H Morse State Airport (13 nm NW)
4V8 - Deerfield Valley Regional Airport (17 nm NE)
KPSF - Pittsfield Municipal Airport (19 nm SW)
0B5 - Turners Falls Airport (27 nm E)
 
Loc | Ops | Rwys | IFR | FBO | Links
Com | Nav | Svcs | Stats | Notes
Area around 32MA (Berkshire Medical Center Heliport)
 
Road maps at: MapQuest Bing Google
 
Aerial photo
No photo
 
Sectional chart

 
Airport distance calculator
Flying to Berkshire Medical Center Heliport? Find the distance to fly.

From to 32MA

Sunrise and sunset
Times for 11-Apr-2021
 Local
(UTC-4)
 Zulu
(UTC)
Morning civil twilight05:5009:50
Sunrise06:1910:19
Sunset19:2823:28
Evening civil twilight19:5823:58

Current date and time
Zulu (UTC)  11-Apr-2021 23:39:08
Local (UTC-4)  11-Apr-2021 19:39:08
 
METAR
KAQW 
3nm W 
112252Z AUTO 09012G20KT 10SM OVC110 12/04 A2969 RMK AO2 SLP058 T01170044
KDDH 
12nm NW 
112254Z AUTO 09014G22KT 10SM OVC110 12/04 A2967 RMK AO2 SLP048 T01220039
KPSF 
18nm SW 
112254Z AUTO VRB04G16KT 7SM -RA SCT017 BKN075 OVC090 09/06 A2967 RMK AO2 RAE2158B23 SLP043 P0002 T00890061
TAF
KPSF 
18nm SW 
111740Z 1118/1218 09009G15KT P6SM SCT040 OVC150 FM112100 09009G16KT P6SM VCSH SCT020 BKN035 FM120000 09010G20KT 5SM -RA BR OVC015 FM120800 08010G20KT 6SM BR VCSH BKN035
NOTAMs
Click for the latest NOTAMs
NOTAMs are issued by the DoD/FAA and will open in a separate window not controlled by AirNav.

 

 
 

Would you like to see your business listed on this page?

 If your business provides an interesting product or service to pilots, flight crews, aircraft, or users of the Berkshire Medical Center Heliport, you should consider listing it here.  To start the listing process, click on the button below
 
Add a business
 

Other Pages about Berkshire Medical Center Heliport

Update a link
 
Copyright © AirNav, LLC. All rights reserved. Privacy Policy  Contact